Time;durP1;ratioP1;P1;durP2;ratioP2;P2;SDS_P1;SDS_P2;PMS_P1;PMS_P2;Temp;Humidity;BMP_temperature;BMP_pressure;BME280_temperature;BME280_humidity;BME280_pressure;Samples;Min_cycle;Max_cycle;Signal;HPM_P1;HPM_P2
2023/08/04 00:00:53;;;;;;;1.25;0.77;;;21.30;76.50;;;;;;5025138;28;20045;-75
2023/08/04 00:03:18;;;;;;;0.93;0.77;;;21.30;76.70;;;;;;5023485;28;20049;-76
2023/08/04 00:05:44;;;;;;;0.98;0.60;;;21.30;76.50;;;;;;5024259;28;20384;-75
2023/08/04 00:08:10;;;;;;;0.80;0.80;;;21.40;76.60;;;;;;5024278;28;20459;-76
2023/08/04 00:10:35;;;;;;;0.40;0.40;;;21.30;76.60;;;;;;5007981;28;20116;-75
2023/08/04 00:13:01;;;;;;;0.77;0.57;;;21.30;76.50;;;;;;5022161;28;20407;-75
2023/08/04 00:15:26;;;;;;;0.73;0.57;;;21.40;76.50;;;;;;5023844;28;20068;-76
2023/08/04 00:17:52;;;;;;;0.77;0.77;;;21.40;76.50;;;;;;5024096;28;20111;-75
2023/08/04 00:20:18;;;;;;;1.83;0.85;;;21.30;76.50;;;;;;5025049;28;20590;-76
2023/08/04 00:22:43;;;;;;;0.63;0.63;;;21.30;76.40;;;;;;5025477;28;20145;-75
2023/08/04 00:25:09;;;;;;;0.52;0.52;;;21.40;76.50;;;;;;5023978;28;20044;-75
2023/08/04 00:27:34;;;;;;;0.40;0.40;;;21.40;76.50;;;;;;5022538;28;20439;-75
2023/08/04 00:30:00;;;;;;;1.13;0.65;;;21.40;76.40;;;;;;5018253;28;20036;-76
2023/08/04 00:32:28;;;;;;;1.30;0.60;;;21.40;77.30;;;;;;5032974;28;20036;-76
2023/08/04 00:35:21;;;;;;;0.70;0.50;;;21.40;76.40;;;;;;4995621;28;20396;-76
2023/08/04 00:37:57;;;;;;;0.63;0.60;;;21.40;76.40;;;;;;4992033;28;20042;-76
2023/08/04 00:40:23;;;;;;;0.82;0.70;;;21.40;76.40;;;;;;5024176;28;20029;-76
2023/08/04 00:42:49;;;;;;;0.63;0.63;;;21.40;76.40;;;;;;5005575;28;20057;-75
2023/08/04 00:45:15;;;;;;;0.57;0.50;;;21.40;76.40;;;;;;5022299;28;20060;-76
2023/08/04 00:47:40;;;;;;;0.75;0.60;;;21.40;76.40;;;;;;5024865;28;20048;-75
2023/08/04 00:50:07;;;;;;;0.68;0.63;;;21.40;76.30;;;;;;5024683;28;20037;-75
2023/08/04 00:52:32;;;;;;;0.50;0.50;;;21.40;76.50;;;;;;5020422;28;20124;-76
2023/08/04 00:54:58;;;;;;;0.95;0.52;;;21.40;76.40;;;;;;5023992;28;20594;-76
2023/08/04 00:57:24;;;;;;;0.50;0.50;;;21.40;76.40;;;;;;5023231;28;20414;-76
2023/08/04 00:59:49;;;;;;;0.65;0.63;;;21.40;76.40;;;;;;5024178;28;20038;-76
2023/08/04 01:02:15;;;;;;;0.60;0.60;;;21.40;76.40;;;;;;5023350;28;20442;-75
2023/08/04 01:04:40;;;;;;;0.70;0.52;;;21.30;76.30;;;;;;5022883;28;20103;-75
2023/08/04 01:07:40;;;;;;;0.60;0.60;;;21.30;76.30;;;;;;5022091;28;20036;-75
2023/08/04 01:10:17;;;;;;;1.15;0.60;;;21.30;76.30;;;;;;5011120;28;20041;-75
2023/08/04 01:13:00;;;;;;;1.05;0.55;;;21.30;76.30;;;;;;5018530;28;20586;-75
2023/08/04 01:15:26;;;;;;;1.52;0.63;;;21.30;76.30;;;;;;5020334;28;20531;-75
2023/08/04 01:17:52;;;;;;;0.60;0.50;;;21.30;76.30;;;;;;5021293;28;20070;-75
2023/08/04 01:20:18;;;;;;;0.55;0.55;;;21.30;76.20;;;;;;5024384;28;20029;-76
2023/08/04 01:22:44;;;;;;;0.30;0.30;;;21.30;76.20;;;;;;5004671;28;20400;-75
2023/08/04 01:25:10;;;;;;;0.50;0.40;;;21.30;76.60;;;;;;5023102;28;20614;-75
2023/08/04 01:27:43;;;;;;;0.77;0.55;;;21.30;76.20;;;;;;5023040;28;20084;-76
2023/08/04 01:30:18;;;;;;;0.75;0.60;;;21.30;76.20;;;;;;5020844;28;20033;-75
2023/08/04 01:32:44;;;;;;;0.40;0.38;;;21.30;76.10;;;;;;5005551;28;20120;-76
2023/08/04 01:35:09;;;;;;;0.45;0.45;;;21.30;76.10;;;;;;5006687;28;20200;-75
2023/08/04 01:37:35;;;;;;;0.82;0.82;;;21.30;76.80;;;;;;5022301;28;20037;-75
2023/08/04 01:40:01;;;;;;;0.50;0.50;;;21.30;75.90;;;;;;5023254;28;20065;-75
2023/08/04 01:42:26;;;;;;;0.77;0.50;;;21.30;75.90;;;;;;5022880;28;20037;-76
2023/08/04 01:44:52;;;;;;;3.03;0.80;;;21.30;75.90;;;;;;5022434;28;20057;-75
2023/08/04 01:47:17;;;;;;;0.55;0.50;;;21.30;75.90;;;;;;5019278;28;20491;-75
2023/08/04 01:49:43;;;;;;;0.52;0.50;;;21.30;75.90;;;;;;5017975;28;20034;-76
2023/08/04 01:52:08;;;;;;;0.52;0.50;;;21.30;75.80;;;;;;5022344;28;20551;-75
2023/08/04 01:54:34;;;;;;;0.70;0.68;;;21.30;75.80;;;;;;5021299;28;20094;-76
2023/08/04 01:57:00;;;;;;;0.95;0.50;;;21.30;75.70;;;;;;5021777;28;20072;-76
2023/08/04 01:59:25;;;;;;;0.50;0.50;;;21.30;76.40;;;;;;5023737;28;20025;-76
2023/08/04 02:01:51;;;;;;;0.50;0.50;;;21.30;75.60;;;;;;5005041;28;20041;-76
2023/08/04 02:04:16;;;;;;;0.80;0.40;;;21.30;75.50;;;;;;5003358;28;20042;-76
2023/08/04 02:06:42;;;;;;;0.60;0.60;;;21.30;75.50;;;;;;5022441;28;20044;-75
2023/08/04 02:09:07;;;;;;;0.80;0.60;;;21.30;75.50;;;;;;5021525;28;20034;-76
2023/08/04 02:11:33;;;;;;;1.30;0.50;;;21.20;75.40;;;;;;5019386;28;20053;-76
2023/08/04 02:13:59;;;;;;;0.43;0.40;;;21.30;75.40;;;;;;5018000;28;20046;-76
2023/08/04 02:16:24;;;;;;;0.45;0.45;;;21.30;75.30;;;;;;5020369;28;20499;-76
2023/08/04 02:18:50;;;;;;;0.50;0.50;;;21.30;75.30;;;;;;5024672;28;20037;-76
2023/08/04 02:21:15;;;;;;;0.50;0.40;;;21.30;75.40;;;;;;5021215;28;20548;-75
2023/08/04 02:23:41;;;;;;;0.40;0.40;;;21.20;75.30;;;;;;5004985;28;20054;-76
2023/08/04 02:26:07;;;;;;;0.60;0.40;;;21.30;75.30;;;;;;5020121;28;20121;-75
2023/08/04 02:28:32;;;;;;;0.30;0.30;;;21.30;75.30;;;;;;5023259;28;20499;-76
2023/08/04 02:31:01;;;;;;;1.00;0.60;;;21.20;75.20;;;;;;5006153;28;20534;-76
2023/08/04 02:33:27;;;;;;;0.52;0.52;;;21.20;75.20;;;;;;5019676;28;20033;-76
2023/08/04 02:36:02;;;;;;;0.60;0.60;;;21.30;75.20;;;;;;5020612;28;20411;-76
2023/08/04 02:38:27;;;;;;;0.98;0.70;;;21.30;75.10;;;;;;5004379;28;20116;-76
2023/08/04 02:40:53;;;;;;;0.47;0.47;;;21.30;75.10;;;;;;5021274;28;20041;-76
2023/08/04 02:43:18;;;;;;;0.57;0.38;;;21.20;75.00;;;;;;5020898;28;20535;-76
2023/08/04 02:45:49;;;;;;;0.65;0.60;;;21.20;75.00;;;;;;5019104;28;20056;-76
2023/08/04 02:48:15;;;;;;;0.80;0.57;;;21.20;75.00;;;;;;5002750;28;20033;-76
2023/08/04 02:50:40;;;;;;;0.70;0.40;;;21.20;75.00;;;;;;5023416;28;20041;-75
2023/08/04 02:53:06;;;;;;;0.60;0.60;;;21.20;75.00;;;;;;5020717;28;20033;-75
2023/08/04 02:55:31;;;;;;;0.70;0.50;;;21.20;74.90;;;;;;5021183;28;20377;-76
2023/08/04 02:57:57;;;;;;;0.60;0.60;;;21.20;74.90;;;;;;5026851;28;20412;-76
2023/08/04 03:00:23;;;;;;;0.40;0.40;;;21.20;74.80;;;;;;5024292;28;20061;-75
2023/08/04 03:02:48;;;;;;;0.60;0.50;;;21.20;74.80;;;;;;5023339;28;22024;-76
2023/08/04 03:05:14;;;;;;;0.47;0.47;;;21.20;74.80;;;;;;5026887;28;20131;-76
2023/08/04 03:07:39;;;;;;;0.60;0.60;;;21.20;74.70;;;;;;5022172;28;20542;-76
2023/08/04 03:10:05;;;;;;;0.60;0.60;;;21.20;74.70;;;;;;5025283;28;20111;-76
2023/08/04 03:12:31;;;;;;;0.30;0.30;;;21.20;75.10;;;;;;5023445;28;20049;-76
2023/08/04 03:14:57;;;;;;;0.50;0.35;;;21.20;74.60;;;;;;5023960;28;20057;-75
2023/08/04 03:17:22;;;;;;;0.50;0.40;;;21.20;74.60;;;;;;5029138;28;20582;-76
2023/08/04 03:19:48;;;;;;;0.88;0.52;;;21.20;74.60;;;;;;5024538;28;20056;-76
2023/08/04 03:22:13;;;;;;;0.50;0.50;;;21.20;74.60;;;;;;5024915;28;20045;-75
2023/08/04 03:24:39;;;;;;;2.05;0.40;;;21.20;74.70;;;;;;5019013;28;20149;-76
2023/08/04 03:27:05;;;;;;;0.55;0.40;;;21.20;74.50;;;;;;5022224;28;20049;-76
2023/08/04 03:29:30;;;;;;;0.70;0.55;;;21.20;74.70;;;;;;5026411;28;20515;-76
2023/08/04 03:31:56;;;;;;;0.40;0.40;;;21.20;74.60;;;;;;5022303;28;20128;-76
2023/08/04 03:34:22;;;;;;;0.28;0.28;;;21.20;74.50;;;;;;5023607;28;20495;-75
2023/08/04 03:36:47;;;;;;;0.30;0.30;;;21.20;74.60;;;;;;5023517;28;20407;-76
2023/08/04 03:39:13;;;;;;;0.85;0.70;;;21.20;74.60;;;;;;5022043;28;20064;-75
2023/08/04 03:41:39;;;;;;;0.60;0.47;;;21.20;74.50;;;;;;5022579;28;20068;-76
2023/08/04 03:44:04;;;;;;;2.22;0.60;;;21.20;74.50;;;;;;5023621;28;20107;-76
2023/08/04 03:46:30;;;;;;;0.85;0.60;;;21.20;74.50;;;;;;5024278;28;20042;-76
2023/08/04 03:48:55;;;;;;;0.70;0.40;;;21.20;74.50;;;;;;5024981;28;20175;-75
2023/08/04 03:51:22;;;;;;;0.40;0.40;;;21.20;74.50;;;;;;5022134;28;20065;-75
2023/08/04 03:53:48;;;;;;;0.50;0.50;;;21.20;74.50;;;;;;5025840;28;20049;-76
2023/08/04 03:56:14;;;;;;;0.65;0.60;;;21.20;74.50;;;;;;5022806;28;20045;-75
2023/08/04 03:58:39;;;;;;;0.30;0.30;;;21.20;74.40;;;;;;5020336;28;20037;-76
2023/08/04 04:01:05;;;;;;;0.80;0.50;;;21.20;74.50;;;;;;5023643;28;20045;-76
2023/08/04 04:03:30;;;;;;;0.60;0.55;;;21.20;74.30;;;;;;5007460;28;20061;-77
2023/08/04 04:05:56;;;;;;;0.43;0.43;;;21.20;74.50;;;;;;5022682;28;20392;-76
2023/08/04 04:08:21;;;;;;;0.40;0.40;;;21.20;74.40;;;;;;5025028;28;20052;-75
2023/08/04 04:10:50;;;;;;;0.40;0.40;;;21.10;74.30;;;;;;5024299;28;20049;-76
2023/08/04 04:13:15;;;;;;;0.40;0.40;;;21.20;74.30;;;;;;5023724;28;20045;-76
2023/08/04 04:15:41;;;;;;;0.47;0.45;;;21.20;74.40;;;;;;5021049;28;20076;-76
2023/08/04 04:18:06;;;;;;;0.43;0.40;;;21.10;74.20;;;;;;5020904;28;20052;-76
2023/08/04 04:20:32;;;;;;;0.60;0.60;;;21.10;74.40;;;;;;5024756;28;20124;-77
2023/08/04 04:22:57;;;;;;;0.40;0.40;;;21.20;74.20;;;;;;5021591;28;20045;-76
2023/08/04 04:25:23;;;;;;;0.73;0.68;;;21.20;74.10;;;;;;5023986;28;20042;-76
2023/08/04 04:27:48;;;;;;;0.47;0.47;;;21.20;75.10;;;;;;5020722;28;20430;-76
2023/08/04 04:30:14;;;;;;;0.70;0.55;;;21.10;74.20;;;;;;5024081;28;20046;-75
2023/08/04 04:32:40;;;;;;;1.15;0.75;;;21.20;74.20;;;;;;5022280;28;20089;-76
2023/08/04 04:35:06;;;;;;;0.50;0.50;;;21.10;74.10;;;;;;5023926;28;20041;-75
2023/08/04 04:37:31;;;;;;;0.50;0.50;;;21.10;74.20;;;;;;5023429;28;20049;-75
2023/08/04 04:39:57;;;;;;;0.43;0.43;;;21.10;74.10;;;;;;5021656;28;20533;-75
2023/08/04 04:42:22;;;;;;;0.68;0.50;;;21.20;74.20;;;;;;5023490;28;20081;-75
2023/08/04 04:44:48;;;;;;;0.40;0.40;;;21.10;74.20;;;;;;5020744;28;20061;-76
2023/08/04 04:47:14;;;;;;;0.82;0.30;;;21.10;74.10;;;;;;5023324;28;20073;-76
2023/08/04 04:49:40;;;;;;;0.40;0.40;;;21.10;74.10;;;;;;5035324;28;20139;-76
2023/08/04 04:52:06;;;;;;;0.50;0.50;;;21.10;74.00;;;;;;5022976;28;20499;-76
2023/08/04 04:54:31;;;;;;;0.50;0.40;;;21.10;74.00;;;;;;5019469;28;20564;-75
2023/08/04 04:56:57;;;;;;;0.40;0.40;;;21.10;74.00;;;;;;5024300;28;20128;-75
2023/08/04 04:59:22;;;;;;;0.40;0.40;;;21.10;74.10;;;;;;5025578;28;20052;-74
2023/08/04 05:01:48;;;;;;;0.80;0.55;;;21.10;74.20;;;;;;5020818;28;20058;-75
2023/08/04 05:04:14;;;;;;;1.25;0.70;;;21.20;73.80;;;;;;5024027;28;20041;-74
2023/08/04 05:06:39;;;;;;;1.00;0.60;;;21.10;71.50;;;;;;5020426;28;20039;-75
2023/08/04 05:09:05;;;;;;;0.80;0.80;;;21.00;71.70;;;;;;4671993;28;9999886;-75
2023/08/04 05:11:30;;;;;;;2.30;1.45;;;20.80;71.10;;;;;;5020877;28;20041;-75
2023/08/04 05:13:57;;;;;;;1.10;0.80;;;20.70;71.40;;;;;;5018177;28;20054;-75
2023/08/04 05:16:22;;;;;;;1.80;0.90;;;20.60;72.00;;;;;;5020157;28;20042;-75
2023/08/04 05:18:48;;;;;;;1.73;0.80;;;20.60;71.10;;;;;;5017504;28;20044;-73
2023/08/04 05:21:13;;;;;;;1.70;0.75;;;20.60;71.70;;;;;;5016972;28;20048;-73
2023/08/04 05:23:39;;;;;;;1.67;1.10;;;20.60;71.30;;;;;;5018184;28;20435;-73
2023/08/04 05:26:04;;;;;;;1.00;0.80;;;20.50;71.10;;;;;;5014760;28;20037;-73
2023/08/04 05:28:32;;;;;;;1.48;0.80;;;20.50;71.50;;;;;;5020474;28;20126;-73
2023/08/04 05:30:59;;;;;;;1.63;0.98;;;20.40;71.60;;;;;;5018454;28;20077;-73
2023/08/04 05:33:25;;;;;;;2.42;0.82;;;20.40;71.50;;;;;;5016140;28;20077;-73
2023/08/04 05:35:51;;;;;;;1.55;1.05;;;20.40;71.70;;;;;;4988181;28;20305;-73
2023/08/04 05:38:16;;;;;;;1.45;1.10;;;20.40;71.90;;;;;;5021295;28;20411;-79
2023/08/04 05:40:44;;;;;;;1.30;1.00;;;20.50;71.30;;;;;;5020450;28;20041;-79
2023/08/04 05:43:10;;;;;;;0.77;0.77;;;20.40;71.60;;;;;;5017034;28;20106;-79
2023/08/04 05:45:36;;;;;;;0.90;0.80;;;20.40;71.70;;;;;;5020216;28;20423;-79
2023/08/04 05:48:02;;;;;;;1.02;0.80;;;20.30;72.00;;;;;;5020622;28;20065;-79
2023/08/04 05:50:28;;;;;;;0.90;0.73;;;20.40;71.90;;;;;;5020942;28;20256;-78
2023/08/04 05:52:53;;;;;;;2.58;1.30;;;20.50;71.70;;;;;;5002416;28;20171;-77
2023/08/04 05:55:22;;;;;;;1.55;1.00;;;20.10;72.50;;;;;;5020063;28;20626;-78
2023/08/04 05:57:47;;;;;;;1.90;0.93;;;19.80;73.60;;;;;;5016981;28;20140;-78
2023/08/04 06:00:13;;;;;;;1.13;0.82;;;19.60;75.10;;;;;;5020361;28;20042;-78
2023/08/04 06:02:38;;;;;;;1.33;0.82;;;19.30;75.50;;;;;;5024088;28;20041;-78
2023/08/04 06:05:04;;;;;;;3.08;1.65;;;19.30;75.90;;;;;;5022134;28;20045;-78
2023/08/04 06:07:30;;;;;;;2.42;1.20;;;19.30;76.00;;;;;;5022084;28;20503;-78
2023/08/04 06:09:55;;;;;;;2.63;1.10;;;19.20;76.10;;;;;;5019450;28;20037;-78
2023/08/04 06:12:21;;;;;;;1.52;0.90;;;19.20;76.10;;;;;;5007895;28;20454;-79
2023/08/04 06:14:47;;;;;;;2.13;1.13;;;19.20;76.50;;;;;;5019401;28;20033;-78
2023/08/04 06:17:12;;;;;;;1.48;0.90;;;19.10;77.00;;;;;;5020329;28;20038;-78
2023/08/04 06:19:42;;;;;;;2.42;0.98;;;19.30;76.90;;;;;;5034422;28;20450;-79
2023/08/04 06:22:07;;;;;;;4.60;1.10;;;19.20;76.90;;;;;;5002624;28;20121;-78
2023/08/04 06:24:33;;;;;;;1.85;1.27;;;19.10;77.20;;;;;;5022910;28;20121;-79
2023/08/04 06:26:59;;;;;;;1.45;0.85;;;19.10;77.30;;;;;;5021412;28;20069;-79
2023/08/04 06:29:24;;;;;;;1.63;1.00;;;19.00;77.60;;;;;;5022421;28;20589;-79
2023/08/04 06:31:50;;;;;;;3.15;1.35;;;19.10;77.80;;;;;;5023409;28;20056;-79
2023/08/04 06:34:15;;;;;;;3.65;1.10;;;19.00;77.70;;;;;;5024102;28;20124;-79
2023/08/04 06:36:45;;;;;;;4.32;1.20;;;19.10;77.90;;;;;;5019894;28;20091;-79
2023/08/04 06:39:10;;;;;;;1.90;1.15;;;19.10;77.50;;;;;;5023392;28;20438;-78
2023/08/04 06:41:36;;;;;;;1.88;1.30;;;19.10;77.80;;;;;;5027584;28;20051;-79
2023/08/04 06:44:01;;;;;;;1.88;1.10;;;19.00;78.00;;;;;;5025451;28;20067;-79
2023/08/04 06:46:27;;;;;;;2.22;0.80;;;19.00;78.30;;;;;;5024770;28;20129;-79
2023/08/04 06:48:53;;;;;;;2.08;1.20;;;19.00;78.20;;;;;;5025617;28;20044;-79
2023/08/04 06:51:18;;;;;;;2.60;1.00;;;19.00;78.20;;;;;;5022867;28;20048;-78
2023/08/04 06:53:44;;;;;;;2.60;1.02;;;19.00;78.10;;;;;;5023636;28;20396;-79
2023/08/04 06:56:09;;;;;;;2.67;1.35;;;19.00;78.40;;;;;;5026332;28;20048;-79
2023/08/04 06:58:35;;;;;;;1.00;0.77;;;18.90;78.70;;;;;;5023460;28;20025;-79
2023/08/04 07:01:00;;;;;;;2.35;0.93;;;19.00;78.80;;;;;;5018684;28;20053;-78
2023/08/04 07:03:26;;;;;;;3.33;1.10;;;19.00;78.60;;;;;;5025716;28;20108;-78
2023/08/04 07:05:52;;;;;;;1.13;0.90;;;19.00;78.30;;;;;;5025310;28;20477;-77
2023/08/04 07:08:17;;;;;;;1.83;1.08;;;19.00;77.80;;;;;;5018737;28;20091;-78
2023/08/04 07:10:43;;;;;;;1.60;1.00;;;19.20;77.80;;;;;;5020214;28;20038;-77
2023/08/04 07:13:08;;;;;;;2.13;0.98;;;19.30;77.40;;;;;;5022346;28;20576;-79
2023/08/04 07:15:34;;;;;;;2.45;1.10;;;19.40;76.80;;;;;;5006022;28;20581;-78
2023/08/04 07:17:59;;;;;;;2.03;1.00;;;19.40;77.70;;;;;;5007121;28;20136;-76
2023/08/04 07:20:25;;;;;;;1.73;0.80;;;19.60;76.30;;;;;;5009797;28;20061;-76
2023/08/04 07:22:51;;;;;;;1.77;0.90;;;19.50;76.20;;;;;;5023073;28;20438;-76
2023/08/04 07:25:16;;;;;;;3.22;1.17;;;19.60;76.00;;;;;;5025083;28;20045;-80
2023/08/04 07:27:42;;;;;;;3.25;1.05;;;19.50;76.30;;;;;;5024255;28;20518;-76
2023/08/04 07:30:08;;;;;;;4.43;1.00;;;19.60;75.90;;;;;;5024709;28;20049;-76
2023/08/04 07:32:33;;;;;;;1.40;1.00;;;19.70;75.60;;;;;;5022375;28;20507;-76
2023/08/04 07:34:59;;;;;;;1.02;0.95;;;19.70;75.40;;;;;;5025022;28;20044;-76
2023/08/04 07:37:25;;;;;;;5.20;1.10;;;19.70;76.10;;;;;;5025851;28;20046;-76
2023/08/04 07:39:50;;;;;;;2.80;1.25;;;19.80;75.60;;;;;;5023073;28;20049;-76
2023/08/04 07:42:16;;;;;;;3.28;1.63;;;19.70;75.50;;;;;;5024059;28;20053;-76
2023/08/04 07:44:41;;;;;;;1.10;1.00;;;19.70;75.30;;;;;;5024592;28;20131;-75
2023/08/04 07:47:07;;;;;;;1.27;0.90;;;19.80;75.20;;;;;;5023825;28;20068;-76
2023/08/04 07:49:32;;;;;;;2.00;1.25;;;19.70;75.40;;;;;;5024938;28;20045;-76
2023/08/04 07:51:58;;;;;;;0.90;0.90;;;19.70;75.20;;;;;;5021167;28;20033;-76
2023/08/04 07:54:24;;;;;;;1.15;0.88;;;19.70;74.90;;;;;;5022324;28;20116;-76
2023/08/04 07:56:49;;;;;;;2.35;1.02;;;19.80;74.90;;;;;;5022848;28;20526;-77
2023/08/04 07:59:15;;;;;;;1.08;0.75;;;19.70;74.90;;;;;;5022200;28;20057;-78
2023/08/04 08:01:40;;;;;;;1.13;0.90;;;19.80;74.50;;;;;;5021035;28;20703;-76
2023/08/04 08:04:06;;;;;;;1.90;1.35;;;19.90;75.10;;;;;;5021551;28;20053;-76
2023/08/04 08:06:32;;;;;;;1.25;1.02;;;20.00;74.50;;;;;;5022331;28;20041;-76
2023/08/04 08:08:58;;;;;;;3.25;1.20;;;19.90;74.60;;;;;;5024039;28;27167;-77
2023/08/04 08:11:23;;;;;;;1.90;1.20;;;20.00;74.40;;;;;;5024484;28;20188;-76
2023/08/04 08:13:49;;;;;;;1.25;1.13;;;20.00;75.20;;;;;;5006126;28;20077;-76
2023/08/04 08:16:15;;;;;;;2.42;1.20;;;20.10;74.70;;;;;;5023834;28;20053;-78
2023/08/04 08:18:41;;;;;;;2.88;0.80;;;20.10;74.40;;;;;;5023770;28;20518;-77
2023/08/04 08:21:07;;;;;;;1.90;1.30;;;20.10;74.50;;;;;;5021584;28;20061;-77
2023/08/04 08:23:33;;;;;;;1.83;1.20;;;20.00;74.60;;;;;;5025354;28;20263;-76
2023/08/04 08:25:59;;;;;;;2.00;1.33;;;19.90;74.40;;;;;;5005609;28;20154;-76
2023/08/04 08:28:24;;;;;;;2.83;0.82;;;19.90;76.50;;;;;;5022379;28;20038;-76
2023/08/04 08:30:50;;;;;;;2.03;1.00;;;20.00;75.30;;;;;;5007589;28;20046;-76
2023/08/04 08:33:15;;;;;;;1.10;0.95;;;20.00;74.90;;;;;;5021630;28;20535;-76
2023/08/04 08:35:41;;;;;;;1.20;1.00;;;20.10;75.10;;;;;;5020756;28;20076;-76
2023/08/04 08:38:06;;;;;;;1.80;1.17;;;20.20;74.60;;;;;;5024364;28;20049;-76
2023/08/04 08:40:32;;;;;;;1.10;0.90;;;20.20;74.60;;;;;;5022998;28;20046;-76
2023/08/04 08:42:58;;;;;;;1.20;1.10;;;20.20;74.70;;;;;;5003369;28;20612;-76
2023/08/04 08:45:27;;;;;;;1.00;0.88;;;20.20;74.10;;;;;;4989747;28;20058;-77
2023/08/04 08:47:53;;;;;;;2.28;1.10;;;20.30;73.90;;;;;;5021009;28;20042;-77
2023/08/04 08:50:18;;;;;;;4.20;0.80;;;20.20;73.40;;;;;;5021903;28;20045;-79
2023/08/04 08:52:44;;;;;;;2.30;0.90;;;20.30;72.90;;;;;;5018390;28;20053;-76
2023/08/04 08:55:10;;;;;;;1.02;0.82;;;20.20;72.90;;;;;;5021133;28;20049;-76
2023/08/04 08:57:36;;;;;;;3.47;1.17;;;20.20;72.30;;;;;;5020611;28;20096;-76
2023/08/04 09:00:03;;;;;;;1.13;0.85;;;20.30;72.10;;;;;;5019998;28;20656;-76
2023/08/04 09:02:28;;;;;;;0.65;0.55;;;20.30;71.70;;;;;;5022626;28;20551;-76
2023/08/04 09:04:54;;;;;;;1.23;0.73;;;20.30;71.70;;;;;;5022426;28;20080;-76
2023/08/04 09:07:22;;;;;;;0.93;0.70;;;20.30;71.10;;;;;;5008208;28;20407;-77
2023/08/04 09:09:48;;;;;;;0.75;0.73;;;20.40;71.80;;;;;;4987191;28;20460;-76
2023/08/04 09:12:13;;;;;;;1.17;0.90;;;20.40;71.10;;;;;;5022065;28;20788;-78
2023/08/04 09:14:48;;;;;;;0.90;0.90;;;20.40;71.10;;;;;;5007428;28;20072;-77
2023/08/04 09:17:33;;;;;;;1.95;0.98;;;20.50;70.70;;;;;;5024502;28;20589;-76
2023/08/04 09:20:00;;;;;;;1.58;1.00;;;20.50;70.20;;;;;;5020324;28;20477;-76
2023/08/04 09:22:26;;;;;;;1.10;0.73;;;20.40;70.40;;;;;;5021169;28;20037;-76
2023/08/04 09:24:55;;;;;;;0.60;0.60;;;20.40;70.30;;;;;;5005665;28;20537;-77
2023/08/04 09:27:28;;;;;;;0.90;0.90;;;20.40;69.90;;;;;;5007496;28;20518;-76
2023/08/04 09:29:58;;;;;;;2.15;0.70;;;20.40;70.00;;;;;;5020220;28;20057;-76
2023/08/04 09:32:24;;;;;;;1.05;0.95;;;20.40;69.80;;;;;;5023247;28;20026;-77
2023/08/04 09:35:04;;;;;;;0.90;0.70;;;20.40;69.80;;;;;;5021498;28;20045;-77
2023/08/04 09:37:31;;;;;;;0.70;0.70;;;20.50;69.30;;;;;;5022206;28;20041;-77
2023/08/04 09:39:57;;;;;;;0.80;0.70;;;20.40;69.30;;;;;;5021262;28;20403;-76
2023/08/04 09:42:22;;;;;;;0.95;0.70;;;20.50;68.80;;;;;;5031519;28;20063;-76
2023/08/04 09:44:55;;;;;;;0.60;0.60;;;20.50;68.90;;;;;;5008450;28;20045;-76
2023/08/04 09:47:24;;;;;;;0.70;0.70;;;20.60;69.90;;;;;;5023615;28;20094;-76
2023/08/04 09:49:50;;;;;;;1.88;0.90;;;20.60;68.90;;;;;;4985952;28;20033;-76
2023/08/04 09:52:23;;;;;;;0.80;0.80;;;20.60;68.90;;;;;;5019573;28;20048;-76
2023/08/04 09:54:52;;;;;;;1.20;0.75;;;20.60;69.10;;;;;;5022615;28;20041;-76
2023/08/04 09:57:17;;;;;;;0.70;0.70;;;20.70;69.20;;;;;;5021788;28;20147;-76
2023/08/04 09:59:43;;;;;;;1.73;1.20;;;20.70;69.30;;;;;;5004724;28;20069;-76
2023/08/04 10:02:09;;;;;;;2.25;1.10;;;20.80;69.80;;;;;;5020129;28;20044;-76
2023/08/04 10:04:35;;;;;;;1.02;0.90;;;20.80;70.10;;;;;;5021234;28;20500;-75
2023/08/04 10:07:01;;;;;;;1.60;1.15;;;20.80;70.10;;;;;;5026125;28;20049;-76
2023/08/04 10:09:27;;;;;;;1.20;1.10;;;20.80;70.00;;;;;;5025002;28;20514;-76
2023/08/04 10:11:52;;;;;;;2.53;1.13;;;20.80;70.00;;;;;;5025158;28;20414;-76
2023/08/04 10:14:18;;;;;;;2.03;1.30;;;20.80;70.30;;;;;;5024746;28;20037;-77
2023/08/04 10:16:44;;;;;;;2.92;1.60;;;20.80;69.70;;;;;;5027112;28;20057;-76
2023/08/04 10:19:09;;;;;;;2.47;1.70;;;20.80;69.50;;;;;;5027170;28;20048;-77
2023/08/04 10:21:39;;;;;;;3.45;1.50;;;20.80;69.60;;;;;;5009301;28;20065;-77
2023/08/04 10:24:06;;;;;;;1.63;1.48;;;20.80;69.90;;;;;;5008547;28;20404;-76
2023/08/04 10:26:48;;;;;;;2.20;1.38;;;20.90;70.20;;;;;;5027521;28;20057;-76
2023/08/04 10:29:14;;;;;;;1.35;1.25;;;20.90;70.00;;;;;;5025168;28;20055;-77
2023/08/04 10:31:52;;;;;;;1.42;1.10;;;21.00;70.20;;;;;;5022123;28;20045;-78
2023/08/04 10:34:27;;;;;;;2.35;0.85;;;21.00;70.20;;;;;;5020593;28;20042;-76
2023/08/04 10:37:16;;;;;;;1.27;0.93;;;21.00;69.80;;;;;;5025719;28;20466;-78
2023/08/04 10:39:56;;;;;;;1.02;1.02;;;21.00;70.20;;;;;;5021735;28;20030;-77
2023/08/04 10:42:29;;;;;;;1.00;0.90;;;21.00;70.00;;;;;;5024253;28;20585;-78
2023/08/04 10:45:08;;;;;;;1.55;1.00;;;21.00;69.60;;;;;;5025919;28;20529;-77
2023/08/04 10:47:55;;;;;;;1.98;1.48;;;21.00;69.80;;;;;;5026813;28;20053;-77
2023/08/04 10:50:21;;;;;;;0.95;0.95;;;21.10;69.70;;;;;;5024772;28;20037;-77
2023/08/04 10:52:47;;;;;;;1.20;1.10;;;21.10;70.20;;;;;;5027238;28;20563;-78
2023/08/04 10:55:13;;;;;;;1.10;1.00;;;21.00;70.50;;;;;;5023734;28;20120;-78
2023/08/04 10:57:40;;;;;;;1.15;0.70;;;21.10;70.10;;;;;;5025044;28;20284;-79
2023/08/04 11:00:10;;;;;;;1.92;1.00;;;21.00;70.20;;;;;;5023258;28;20048;-78
2023/08/04 11:02:36;;;;;;;0.95;0.90;;;21.00;69.70;;;;;;5023373;28;20045;-78
2023/08/04 11:05:03;;;;;;;0.98;0.80;;;21.10;69.50;;;;;;5009539;28;20053;-78
2023/08/04 11:07:29;;;;;;;1.52;1.25;;;21.00;69.30;;;;;;5025018;28;20050;-78
2023/08/04 11:09:54;;;;;;;1.83;0.90;;;21.00;69.10;;;;;;5025236;28;20057;-78
2023/08/04 11:12:20;;;;;;;1.77;0.90;;;21.00;69.30;;;;;;5025016;28;20033;-78
2023/08/04 11:14:45;;;;;;;1.63;1.00;;;21.00;69.00;;;;;;5026519;28;20561;-77
2023/08/04 11:17:14;;;;;;;1.40;1.23;;;21.00;68.80;;;;;;5025869;28;20506;-77
2023/08/04 11:19:42;;;;;;;1.00;0.80;;;21.10;69.20;;;;;;5023670;28;20042;-77
2023/08/04 11:22:14;;;;;;;0.90;0.90;;;21.00;69.00;;;;;;5009265;28;20041;-78
2023/08/04 11:24:40;;;;;;;0.98;0.98;;;20.90;69.80;;;;;;5025546;28;20046;-77
2023/08/04 11:27:06;;;;;;;1.10;1.00;;;21.00;69.30;;;;;;5025099;28;20051;-78
2023/08/04 11:29:32;;;;;;;1.40;0.80;;;21.00;69.10;;;;;;5024965;28;20062;-78
2023/08/04 11:31:58;;;;;;;0.82;0.82;;;21.00;69.70;;;;;;5024719;28;20420;-78
2023/08/04 11:34:23;;;;;;;0.77;0.73;;;21.00;69.70;;;;;;5024780;28;20050;-77
2023/08/04 11:36:52;;;;;;;1.02;0.93;;;20.90;69.70;;;;;;5022471;28;20550;-78
2023/08/04 11:39:17;;;;;;;1.10;0.90;;;21.00;69.70;;;;;;4999263;28;20076;-83
2023/08/04 11:41:44;;;;;;;2.00;1.15;;;21.00;69.60;;;;;;5024088;28;20065;-85
2023/08/04 11:44:09;;;;;;;0.85;0.77;;;20.90;70.00;;;;;;5021088;28;20073;-83
2023/08/04 11:46:35;;;;;;;1.30;0.90;;;20.80;70.50;;;;;;5023851;28;20157;-81
2023/08/04 11:49:08;;;;;;;0.98;0.80;;;20.90;70.70;;;;;;5022644;28;20044;-83
2023/08/04 11:51:34;;;;;;;1.20;0.85;;;20.90;71.10;;;;;;5022265;28;20037;-82
2023/08/04 11:53:59;;;;;;;1.48;0.88;;;21.00;72.10;;;;;;5025421;28;20107;-81
2023/08/04 11:56:25;;;;;;;1.58;0.82;;;21.10;72.40;;;;;;5024368;28;20497;-84
2023/08/04 11:58:54;;;;;;;1.08;0.90;;;21.20;72.60;;;;;;4655421;28;9999951;-81
2023/08/04 12:01:26;;;;;;;0.88;0.60;;;21.20;71.80;;;;;;5000417;28;20503;-80
2023/08/04 12:03:52;;;;;;;0.65;0.65;;;21.20;71.80;;;;;;5032824;28;20052;-83
2023/08/04 12:06:22;;;;;;;1.05;0.70;;;21.30;71.80;;;;;;5018940;28;20022;-80
2023/08/04 12:08:54;;;;;;;0.80;0.60;;;21.30;71.50;;;;;;5020462;28;20611;-81
2023/08/04 12:11:23;;;;;;;3.70;1.10;;;21.30;71.40;;;;;;5018466;28;20306;-83
2023/08/04 12:13:49;;;;;;;1.00;0.98;;;21.30;71.50;;;;;;5004266;28;20526;-82
2023/08/04 12:16:15;;;;;;;1.25;1.15;;;21.30;71.50;;;;;;5015431;28;20088;-82
2023/08/04 12:18:41;;;;;;;2.80;1.00;;;21.30;71.60;;;;;;4983188;28;20068;-79
2023/08/04 12:21:10;;;;;;;0.95;0.95;;;21.40;71.70;;;;;;5016827;28;20049;-82
2023/08/04 12:23:36;;;;;;;1.70;0.90;;;21.40;71.90;;;;;;5023124;28;20038;-80
2023/08/04 12:26:01;;;;;;;1.05;0.95;;;21.30;71.70;;;;;;5023720;28;20042;-79
2023/08/04 12:28:27;;;;;;;0.68;0.50;;;21.40;71.80;;;;;;5003173;28;20064;-83
2023/08/04 12:30:52;;;;;;;1.10;1.00;;;21.40;71.70;;;;;;5008002;28;20056;-83
2023/08/04 12:33:33;;;;;;;0.77;0.77;;;21.40;71.60;;;;;;5009757;28;20053;-79
2023/08/04 12:35:59;;;;;;;2.38;0.60;;;21.40;70.50;;;;;;5021811;28;20608;-80
2023/08/04 12:38:24;;;;;;;0.90;0.85;;;21.40;70.30;;;;;;5021624;28;20049;-78
2023/08/04 12:40:50;;;;;;;1.30;0.90;;;21.30;70.30;;;;;;5022358;28;20037;-79
2023/08/04 12:43:16;;;;;;;0.90;0.70;;;21.30;70.60;;;;;;5022275;28;20045;-78